KNE195 OEJN-OBBI
Flight info
| Callsign | KNE195 |
|---|---|
| Flight time | 1h 22m |
| Altitude | 37000 |
| Route | EGREP3V EGREP B417 PATOR T532 KSA N687 KFA M691 LADNA LADNA1 |
| Aircraft | A320/M-V/N |
Departure
| Time | 2026-05-08 10:58 |
|---|---|
| Airport | King Abdulaziz International Airport (OEJN) |
Arrival
| Time | 2026-05-08 12:21 |
|---|---|
| Airport | Bahrain International Airport (OBBI) |
| Time | Latitude | Longitude | Altitude | Speed | Heading |
|---|---|---|---|---|---|
| 2026-05-08 10:30 | 21.66696 | 39.17547 | 31 ft | 0 kts | 341° |
| 2026-05-08 10:51 | 21.66681 | 39.17553 | 30 ft | 4 kts | 343° |
| 2026-05-08 10:51 | 21.66654 | 39.17560 | 30 ft | 4 kts | 353° |
| 2026-05-08 10:51 | 21.66628 | 39.17559 | 30 ft | 4 kts | 25° |
| 2026-05-08 10:52 | 21.66616 | 39.17548 | 30 ft | 0 kts | 70° |
| 2026-05-08 10:54 | 21.66618 | 39.17553 | 30 ft | 2 kts | 70° |
| 2026-05-08 10:55 | 21.66620 | 39.17560 | 30 ft | 0 kts | 70° |
| 2026-05-08 10:55 | 21.66629 | 39.17587 | 30 ft | 12 kts | 70° |
| 2026-05-08 10:55 | 21.66658 | 39.17671 | 30 ft | 11 kts | 70° |
| 2026-05-08 10:55 | 21.66682 | 39.17742 | 30 ft | 9 kts | 71° |
| 2026-05-08 10:56 | 21.66670 | 39.17798 | 31 ft | 7 kts | 134° |
| 2026-05-08 10:56 | 21.66635 | 39.17822 | 31 ft | 6 kts | 142° |
| 2026-05-08 10:56 | 21.66615 | 39.17869 | 32 ft | 7 kts | 95° |
| 2026-05-08 10:56 | 21.66622 | 39.17910 | 32 ft | 5 kts | 73° |
| 2026-05-08 10:57 | 21.66631 | 39.17939 | 32 ft | 4 kts | 71° |
| 2026-05-08 10:57 | 21.66638 | 39.17960 | 32 ft | 2 kts | 71° |
| 2026-05-08 10:57 | 21.66727 | 39.18018 | 32 ft | 22 kts | 347° |
| 2026-05-08 10:58 | 21.67049 | 39.17891 | 30 ft | 83 kts | 340° |
| 2026-05-08 10:58 | 21.67777 | 39.17606 | 34 ft | 137 kts | 340° |
| 2026-05-08 10:58 | 21.68805 | 39.17201 | 144 ft | 169 kts | 339° |
| 2026-05-08 10:58 | 21.69896 | 39.16775 | 830 ft | 167 kts | 338° |
| 2026-05-08 10:59 | 21.70989 | 39.16388 | 1443 ft | 168 kts | 342° |
| 2026-05-08 10:59 | 21.72152 | 39.16104 | 1813 ft | 178 kts | 348° |
| 2026-05-08 10:59 | 21.73449 | 39.15912 | 2028 ft | 198 kts | 358° |
| 2026-05-08 10:59 | 21.74796 | 39.16442 | 2163 ft | 225 kts | 39° |
| 2026-05-08 11:00 | 21.75979 | 39.17679 | 2460 ft | 249 kts | 41° |
| 2026-05-08 11:00 | 21.77395 | 39.18848 | 2912 ft | 262 kts | 37° |
| 2026-05-08 11:00 | 21.78829 | 39.20103 | 3618 ft | 268 kts | 40° |
| 2026-05-08 11:00 | 21.80258 | 39.21426 | 4358 ft | 272 kts | 41° |
| 2026-05-08 11:01 | 21.81687 | 39.22778 | 5129 ft | 275 kts | 42° |
| 2026-05-08 11:01 | 21.83128 | 39.24148 | 5885 ft | 278 kts | 42° |
| 2026-05-08 11:01 | 21.84588 | 39.25534 | 6600 ft | 282 kts | 43° |
| 2026-05-08 11:01 | 21.86075 | 39.26941 | 7238 ft | 287 kts | 43° |
| 2026-05-08 11:02 | 21.87591 | 39.28370 | 7876 ft | 291 kts | 43° |
| 2026-05-08 11:02 | 21.90685 | 39.31276 | 9139 ft | 299 kts | 44° |
| 2026-05-08 11:02 | 21.92262 | 39.32755 | 9769 ft | 303 kts | 44° |
| 2026-05-08 11:03 | 21.93868 | 39.34260 | 10249 ft | 313 kts | 43° |
| 2026-05-08 11:03 | 21.95570 | 39.35858 | 10393 ft | 335 kts | 43° |
| 2026-05-08 11:03 | 21.97384 | 39.37561 | 10527 ft | 356 kts | 43° |
| 2026-05-08 11:03 | 21.99296 | 39.39356 | 10720 ft | 372 kts | 43° |
| 2026-05-08 11:04 | 22.01268 | 39.41206 | 11176 ft | 379 kts | 42° |
| 2026-05-08 11:04 | 22.03269 | 39.43088 | 11698 ft | 384 kts | 42° |
| 2026-05-08 11:04 | 22.05295 | 39.44989 | 12248 ft | 387 kts | 41° |
| 2026-05-08 11:04 | 22.07343 | 39.46912 | 12815 ft | 392 kts | 41° |
| 2026-05-08 11:05 | 22.09403 | 39.48851 | 13378 ft | 396 kts | 41° |
| 2026-05-08 11:05 | 22.11484 | 39.50813 | 13948 ft | 399 kts | 41° |
| 2026-05-08 11:05 | 22.13584 | 39.52794 | 14484 ft | 403 kts | 41° |
| 2026-05-08 11:05 | 22.15676 | 39.54764 | 15029 ft | 406 kts | 41° |
| 2026-05-08 11:06 | 22.17818 | 39.56779 | 15582 ft | 410 kts | 41° |
| 2026-05-08 11:06 | 22.19975 | 39.58814 | 16117 ft | 413 kts | 41° |
| 2026-05-08 11:06 | 22.22150 | 39.60867 | 16638 ft | 417 kts | 41° |
| 2026-05-08 11:06 | 22.24341 | 39.62935 | 17165 ft | 420 kts | 40° |
| 2026-05-08 11:07 | 22.26546 | 39.65015 | 17675 ft | 423 kts | 40° |
| 2026-05-08 11:07 | 22.28768 | 39.67112 | 18156 ft | 426 kts | 40° |
| 2026-05-08 11:07 | 22.31010 | 39.69232 | 18631 ft | 430 kts | 40° |
| 2026-05-08 11:07 | 22.33268 | 39.71369 | 19120 ft | 432 kts | 40° |
| 2026-05-08 11:08 | 22.35539 | 39.73519 | 19583 ft | 436 kts | 40° |
| 2026-05-08 11:08 | 22.37822 | 39.75679 | 20021 ft | 438 kts | 40° |
| 2026-05-08 11:08 | 22.40098 | 39.77829 | 20467 ft | 441 kts | 39° |
| 2026-05-08 11:08 | 22.42409 | 39.80014 | 20869 ft | 443 kts | 39° |
| 2026-05-08 11:09 | 22.44736 | 39.82219 | 21252 ft | 446 kts | 39° |
| 2026-05-08 11:09 | 22.47074 | 39.84439 | 21638 ft | 449 kts | 39° |
| 2026-05-08 11:09 | 22.49427 | 39.86672 | 22029 ft | 451 kts | 39° |
| 2026-05-08 11:09 | 22.51799 | 39.88922 | 22419 ft | 454 kts | 39° |
| 2026-05-08 11:10 | 22.54178 | 39.91179 | 22795 ft | 457 kts | 39° |
| 2026-05-08 11:10 | 22.56572 | 39.93451 | 23137 ft | 460 kts | 39° |
| 2026-05-08 11:10 | 22.58984 | 39.95743 | 23475 ft | 462 kts | 38° |
| 2026-05-08 11:10 | 22.61409 | 39.98052 | 23797 ft | 465 kts | 38° |
| 2026-05-08 11:11 | 22.63020 | 39.99587 | 24024 ft | 467 kts | 38° |
| 2026-05-08 11:11 | 22.65464 | 40.01914 | 24333 ft | 469 kts | 39° |
| 2026-05-08 11:11 | 22.68730 | 40.05025 | 24690 ft | 474 kts | 39° |
| 2026-05-08 11:11 | 22.71213 | 40.07393 | 24969 ft | 477 kts | 39° |
| 2026-05-08 11:12 | 22.73709 | 40.09773 | 25235 ft | 480 kts | 39° |
| 2026-05-08 11:12 | 22.76226 | 40.12173 | 25506 ft | 483 kts | 39° |
| 2026-05-08 11:12 | 22.77939 | 40.13805 | 25679 ft | 486 kts | 39° |
| 2026-05-08 11:12 | 22.80485 | 40.16232 | 25952 ft | 489 kts | 39° |
| 2026-05-08 11:13 | 22.83008 | 40.18639 | 26223 ft | 491 kts | 39° |
| 2026-05-08 11:13 | 22.85580 | 40.21094 | 26480 ft | 494 kts | 40° |
| 2026-05-08 11:13 | 22.88165 | 40.23566 | 26721 ft | 498 kts | 40° |
| 2026-05-08 11:13 | 22.90768 | 40.26061 | 26965 ft | 500 kts | 40° |
| 2026-05-08 11:14 | 22.93385 | 40.28566 | 27191 ft | 503 kts | 40° |
| 2026-05-08 11:14 | 22.96018 | 40.31084 | 27426 ft | 506 kts | 40° |
| 2026-05-08 11:14 | 22.98669 | 40.33621 | 27663 ft | 509 kts | 40° |
| 2026-05-08 11:14 | 23.01330 | 40.36175 | 27894 ft | 511 kts | 40° |
| 2026-05-08 11:15 | 23.04003 | 40.38737 | 28114 ft | 514 kts | 40° |
| 2026-05-08 11:15 | 23.06690 | 40.41314 | 28340 ft | 516 kts | 40° |
| 2026-05-08 11:15 | 23.09393 | 40.43908 | 28555 ft | 519 kts | 40° |
| 2026-05-08 11:15 | 23.12108 | 40.46511 | 28761 ft | 522 kts | 40° |
| 2026-05-08 11:16 | 23.14836 | 40.49133 | 29016 ft | 524 kts | 40° |
| 2026-05-08 11:16 | 23.17567 | 40.51757 | 29356 ft | 523 kts | 40° |
| 2026-05-08 11:16 | 23.20290 | 40.54380 | 29664 ft | 524 kts | 40° |
| 2026-05-08 11:16 | 23.23016 | 40.57010 | 29935 ft | 525 kts | 41° |
| 2026-05-08 11:17 | 23.25561 | 40.59856 | 30220 ft | 525 kts | 51° |
| 2026-05-08 11:17 | 23.27689 | 40.63024 | 30478 ft | 525 kts | 60° |
| 2026-05-08 11:17 | 23.29404 | 40.66522 | 30743 ft | 523 kts | 69° |
| 2026-05-08 11:17 | 23.30722 | 40.70197 | 31032 ft | 522 kts | 72° |
| 2026-05-08 11:18 | 23.31994 | 40.73905 | 31323 ft | 522 kts | 73° |
| 2026-05-08 11:18 | 23.33266 | 40.77603 | 31603 ft | 522 kts | 73° |
| 2026-05-08 11:18 | 23.34546 | 40.81309 | 31867 ft | 523 kts | 73° |
| 2026-05-08 11:18 | 23.35828 | 40.85024 | 32146 ft | 523 kts | 73° |
| 2026-05-08 11:19 | 23.37105 | 40.88737 | 32413 ft | 524 kts | 73° |
| 2026-05-08 11:19 | 23.38377 | 40.92449 | 32677 ft | 524 kts | 73° |
| 2026-05-08 11:19 | 23.39650 | 40.96168 | 32948 ft | 524 kts | 73° |
| 2026-05-08 11:19 | 23.40922 | 40.99888 | 33199 ft | 525 kts | 74° |
| 2026-05-08 11:20 | 23.42196 | 41.03614 | 33450 ft | 525 kts | 74° |
| 2026-05-08 11:20 | 23.43469 | 41.07339 | 33691 ft | 526 kts | 74° |
| 2026-05-08 11:20 | 23.44742 | 41.11068 | 33936 ft | 526 kts | 74° |
| 2026-05-08 11:20 | 23.46016 | 41.14805 | 34178 ft | 527 kts | 75° |
| 2026-05-08 11:21 | 23.47292 | 41.18543 | 34422 ft | 527 kts | 75° |
| 2026-05-08 11:21 | 23.48572 | 41.22284 | 34701 ft | 526 kts | 75° |
| 2026-05-08 11:21 | 23.49850 | 41.26024 | 34948 ft | 526 kts | 75° |
| 2026-05-08 11:21 | 23.51125 | 41.29767 | 35169 ft | 527 kts | 75° |
| 2026-05-08 11:22 | 23.52378 | 41.33462 | 35397 ft | 526 kts | 75° |
| 2026-05-08 11:22 | 23.53643 | 41.37204 | 35626 ft | 526 kts | 75° |
| 2026-05-08 11:22 | 23.54909 | 41.40949 | 35841 ft | 526 kts | 75° |
| 2026-05-08 11:22 | 23.56177 | 41.44697 | 36055 ft | 526 kts | 75° |
| 2026-05-08 11:23 | 23.57447 | 41.48442 | 36232 ft | 526 kts | 75° |
| 2026-05-08 11:23 | 23.58716 | 41.52189 | 36417 ft | 526 kts | 75° |
| 2026-05-08 11:23 | 23.59984 | 41.55932 | 36592 ft | 527 kts | 75° |
| 2026-05-08 11:23 | 23.61250 | 41.59675 | 36799 ft | 526 kts | 75° |
| 2026-05-08 11:24 | 23.62512 | 41.63417 | 36996 ft | 525 kts | 75° |
| 2026-05-08 11:24 | 23.65019 | 41.70873 | 37031 ft | 522 kts | 75° |
| 2026-05-08 11:25 | 23.67497 | 41.78261 | 37043 ft | 522 kts | 75° |
| 2026-05-08 11:25 | 23.69990 | 41.85698 | 37046 ft | 521 kts | 75° |
| 2026-05-08 11:26 | 23.72478 | 41.93124 | 37044 ft | 521 kts | 75° |
| 2026-05-08 11:26 | 23.74971 | 42.00559 | 37042 ft | 521 kts | 75° |
| 2026-05-08 11:27 | 23.77503 | 42.07988 | 37051 ft | 522 kts | 75° |
| 2026-05-08 11:27 | 23.80056 | 42.15401 | 37050 ft | 521 kts | 75° |
| 2026-05-08 11:28 | 23.82598 | 42.22826 | 37047 ft | 522 kts | 75° |
| 2026-05-08 11:28 | 23.85119 | 42.30262 | 37049 ft | 522 kts | 75° |
| 2026-05-08 11:29 | 23.87639 | 42.37695 | 37055 ft | 522 kts | 75° |
| 2026-05-08 11:29 | 23.90147 | 42.45092 | 37061 ft | 522 kts | 75° |
| 2026-05-08 11:30 | 23.92669 | 42.52523 | 37066 ft | 522 kts | 75° |
| 2026-05-08 11:30 | 23.95189 | 42.59962 | 37070 ft | 521 kts | 75° |
| 2026-05-08 11:31 | 23.97693 | 42.67405 | 37075 ft | 520 kts | 75° |
| 2026-05-08 11:31 | 24.00183 | 42.74830 | 37074 ft | 520 kts | 75° |
| 2026-05-08 11:32 | 24.02679 | 42.82252 | 37060 ft | 520 kts | 75° |
| 2026-05-08 11:32 | 24.05177 | 42.89689 | 37061 ft | 520 kts | 75° |
| 2026-05-08 11:33 | 24.07652 | 42.97122 | 37063 ft | 520 kts | 76° |
| 2026-05-08 11:33 | 24.10081 | 43.04526 | 37067 ft | 520 kts | 76° |
| 2026-05-08 11:34 | 24.12514 | 43.11982 | 37071 ft | 520 kts | 76° |
| 2026-05-08 11:34 | 24.14949 | 43.19438 | 37080 ft | 520 kts | 76° |
| 2026-05-08 11:35 | 24.17387 | 43.26880 | 37082 ft | 519 kts | 76° |
| 2026-05-08 11:35 | 24.19822 | 43.34322 | 37094 ft | 519 kts | 76° |
| 2026-05-08 11:36 | 24.22251 | 43.41767 | 37093 ft | 518 kts | 76° |
| 2026-05-08 11:36 | 24.24664 | 43.49200 | 37104 ft | 517 kts | 76° |
| 2026-05-08 11:37 | 24.27077 | 43.56631 | 37097 ft | 517 kts | 76° |
| 2026-05-08 11:37 | 24.29468 | 43.64005 | 37102 ft | 516 kts | 76° |
| 2026-05-08 11:38 | 24.31867 | 43.71420 | 37090 ft | 516 kts | 76° |
| 2026-05-08 11:38 | 24.34259 | 43.78835 | 37092 ft | 516 kts | 75° |
| 2026-05-08 11:39 | 24.36653 | 43.86248 | 37104 ft | 515 kts | 76° |
| 2026-05-08 11:39 | 24.39051 | 43.93672 | 37089 ft | 515 kts | 76° |
| 2026-05-08 11:40 | 24.41437 | 44.01090 | 37093 ft | 515 kts | 76° |
| 2026-05-08 11:40 | 24.43792 | 44.08467 | 37088 ft | 514 kts | 76° |
| 2026-05-08 11:41 | 24.45613 | 44.15983 | 37091 ft | 506 kts | 85° |
| 2026-05-08 11:41 | 24.46939 | 44.23577 | 37085 ft | 506 kts | 85° |
| 2026-05-08 11:42 | 24.48256 | 44.31165 | 37094 ft | 506 kts | 85° |
| 2026-05-08 11:42 | 24.49569 | 44.38755 | 37084 ft | 506 kts | 85° |
| 2026-05-08 11:43 | 24.50879 | 44.46340 | 37085 ft | 506 kts | 86° |
| 2026-05-08 11:43 | 24.52183 | 44.53932 | 37085 ft | 506 kts | 86° |
| 2026-05-08 11:44 | 24.53487 | 44.61525 | 37080 ft | 506 kts | 86° |
| 2026-05-08 11:44 | 24.54789 | 44.69114 | 37077 ft | 505 kts | 86° |
| 2026-05-08 11:45 | 24.56073 | 44.76653 | 37076 ft | 506 kts | 86° |
| 2026-05-08 11:45 | 24.57365 | 44.84246 | 37075 ft | 506 kts | 86° |
| 2026-05-08 11:46 | 24.58653 | 44.91845 | 37074 ft | 506 kts | 86° |
| 2026-05-08 11:46 | 24.59942 | 44.99448 | 37071 ft | 506 kts | 86° |
| 2026-05-08 11:47 | 24.61228 | 45.07046 | 37067 ft | 506 kts | 86° |
| 2026-05-08 11:47 | 24.62501 | 45.14647 | 37065 ft | 505 kts | 86° |
| 2026-05-08 11:48 | 24.63768 | 45.22245 | 37063 ft | 505 kts | 86° |
| 2026-05-08 11:48 | 24.65027 | 45.29794 | 37064 ft | 504 kts | 86° |
| 2026-05-08 11:49 | 24.66299 | 45.37421 | 37060 ft | 504 kts | 86° |
| 2026-05-08 11:49 | 24.67554 | 45.45004 | 37057 ft | 503 kts | 86° |
| 2026-05-08 11:50 | 24.70054 | 45.60232 | 37053 ft | 503 kts | 86° |
| 2026-05-08 11:50 | 24.76369 | 45.74052 | 37043 ft | 521 kts | 49° |
| 2026-05-08 11:50 | 24.85931 | 45.86102 | 37027 ft | 521 kts | 51° |
| 2026-05-08 11:51 | 25.04968 | 46.10291 | 37023 ft | 523 kts | 51° |
| 2026-05-08 11:51 | 25.11239 | 46.18268 | 37042 ft | 523 kts | 51° |
| 2026-05-08 11:52 | 25.15997 | 46.24336 | 37038 ft | 523 kts | 51° |
| 2026-05-08 11:52 | 25.20754 | 46.30402 | 37037 ft | 523 kts | 51° |
| 2026-05-08 11:53 | 25.25515 | 46.36480 | 37033 ft | 523 kts | 51° |
| 2026-05-08 11:53 | 25.30270 | 46.42566 | 37038 ft | 523 kts | 51° |
| 2026-05-08 11:54 | 25.35029 | 46.48661 | 37039 ft | 523 kts | 51° |
| 2026-05-08 11:54 | 25.39782 | 46.54758 | 37040 ft | 523 kts | 51° |
| 2026-05-08 11:55 | 25.44534 | 46.60860 | 37034 ft | 523 kts | 51° |
| 2026-05-08 11:55 | 25.49287 | 46.66965 | 37033 ft | 523 kts | 51° |
| 2026-05-08 11:56 | 25.54033 | 46.73072 | 37033 ft | 523 kts | 51° |
| 2026-05-08 11:56 | 25.58745 | 46.79139 | 37033 ft | 523 kts | 51° |
| 2026-05-08 11:57 | 25.63477 | 46.85257 | 37026 ft | 523 kts | 51° |
| 2026-05-08 11:57 | 25.68213 | 46.91381 | 37032 ft | 523 kts | 51° |
| 2026-05-08 11:58 | 25.72937 | 46.97507 | 37024 ft | 522 kts | 51° |
| 2026-05-08 11:58 | 25.77660 | 47.03637 | 37023 ft | 522 kts | 51° |
| 2026-05-08 11:59 | 25.83946 | 47.11792 | 37021 ft | 522 kts | 51° |
| 2026-05-08 11:59 | 25.88657 | 47.17913 | 37017 ft | 522 kts | 51° |
| 2026-05-08 12:00 | 25.93372 | 47.24044 | 37016 ft | 521 kts | 51° |
| 2026-05-08 12:00 | 25.98072 | 47.30176 | 37014 ft | 521 kts | 51° |
| 2026-05-08 12:01 | 26.02771 | 47.36316 | 37006 ft | 521 kts | 52° |
| 2026-05-08 12:01 | 26.07446 | 47.42425 | 36993 ft | 522 kts | 52° |
| 2026-05-08 12:02 | 26.12151 | 47.48588 | 36990 ft | 522 kts | 52° |
| 2026-05-08 12:02 | 26.16855 | 47.54753 | 36990 ft | 522 kts | 52° |
| 2026-05-08 12:03 | 26.21558 | 47.60919 | 36988 ft | 522 kts | 51° |
| 2026-05-08 12:03 | 26.26040 | 47.67263 | 36976 ft | 518 kts | 62° |
| 2026-05-08 12:04 | 26.28963 | 47.74488 | 36971 ft | 507 kts | 79° |
| 2026-05-08 12:04 | 26.30585 | 47.82090 | 36958 ft | 504 kts | 83° |
| 2026-05-08 12:05 | 26.32133 | 47.89656 | 36956 ft | 504 kts | 83° |
| 2026-05-08 12:05 | 26.33679 | 47.97272 | 36951 ft | 504 kts | 83° |
| 2026-05-08 12:06 | 26.38708 | 48.22181 | 36936 ft | 504 kts | 83° |
| 2026-05-08 12:06 | 26.44823 | 48.52716 | 36921 ft | 504 kts | 83° |
| 2026-05-08 12:07 | 26.47917 | 48.83371 | 36907 ft | 495 kts | 95° |
| 2026-05-08 12:07 | 26.48605 | 49.13944 | 36902 ft | 496 kts | 95° |
| 2026-05-08 12:08 | 26.49187 | 49.44739 | 36891 ft | 495 kts | 95° |
| 2026-05-08 12:08 | 26.49718 | 49.75447 | 36878 ft | 494 kts | 95° |
| 2026-05-08 12:09 | 26.49193 | 49.90695 | 36470 ft | 490 kts | 101° |
| 2026-05-08 12:09 | 26.48163 | 50.05899 | 33999 ft | 491 kts | 99° |
| 2026-05-08 12:09 | 26.47349 | 50.21227 | 30761 ft | 498 kts | 98° |
| 2026-05-08 12:09 | 26.46573 | 50.36691 | 27201 ft | 505 kts | 89° |
| 2026-05-08 12:10 | 26.51533 | 50.51513 | 23250 ft | 510 kts | 70° |
| 2026-05-08 12:10 | 26.54537 | 50.62143 | 20359 ft | 498 kts | 91° |
| 2026-05-08 12:10 | 26.54574 | 50.65867 | 19490 ft | 466 kts | 95° |
| 2026-05-08 12:10 | 26.53976 | 50.69359 | 17886 ft | 454 kts | 115° |
| 2026-05-08 12:11 | 26.52363 | 50.72301 | 16307 ft | 440 kts | 136° |
| 2026-05-08 12:11 | 26.50008 | 50.74391 | 14821 ft | 428 kts | 152° |
| 2026-05-08 12:11 | 26.47441 | 50.75960 | 14002 ft | 408 kts | 153° |
| 2026-05-08 12:11 | 26.45041 | 50.77427 | 13753 ft | 378 kts | 153° |
| 2026-05-08 12:12 | 26.42824 | 50.78794 | 13620 ft | 350 kts | 153° |
| 2026-05-08 12:12 | 26.40769 | 50.80061 | 13490 ft | 326 kts | 153° |
| 2026-05-08 12:12 | 26.38853 | 50.81237 | 13360 ft | 303 kts | 153° |
| 2026-05-08 12:12 | 26.37086 | 50.82318 | 13233 ft | 284 kts | 153° |
| 2026-05-08 12:13 | 26.35405 | 50.83346 | 13115 ft | 267 kts | 153° |
| 2026-05-08 12:13 | 26.33819 | 50.84318 | 12869 ft | 256 kts | 153° |
| 2026-05-08 12:13 | 26.32273 | 50.85262 | 12436 ft | 252 kts | 153° |
| 2026-05-08 12:13 | 26.30734 | 50.86199 | 11956 ft | 251 kts | 153° |
| 2026-05-08 12:14 | 26.29203 | 50.87130 | 11488 ft | 250 kts | 153° |
| 2026-05-08 12:14 | 26.27621 | 50.87907 | 10976 ft | 248 kts | 163° |
| 2026-05-08 12:14 | 26.25960 | 50.88455 | 10460 ft | 249 kts | 166° |
| 2026-05-08 12:14 | 26.24287 | 50.88969 | 9951 ft | 250 kts | 166° |
| 2026-05-08 12:15 | 26.22604 | 50.89477 | 9447 ft | 250 kts | 166° |
| 2026-05-08 12:15 | 26.20920 | 50.89979 | 8943 ft | 251 kts | 166° |
| 2026-05-08 12:15 | 26.19225 | 50.90464 | 8432 ft | 252 kts | 171° |
| 2026-05-08 12:15 | 26.17511 | 50.90351 | 7981 ft | 246 kts | 202° |
| 2026-05-08 12:16 | 26.16124 | 50.89310 | 7585 ft | 239 kts | 230° |
| 2026-05-08 12:16 | 26.15237 | 50.87772 | 7122 ft | 235 kts | 250° |
| 2026-05-08 12:16 | 26.14904 | 50.86010 | 6665 ft | 233 kts | 271° |
| 2026-05-08 12:16 | 26.15146 | 50.84253 | 6214 ft | 230 kts | 291° |
| 2026-05-08 12:17 | 26.15883 | 50.82715 | 5797 ft | 227 kts | 303° |
| 2026-05-08 12:17 | 26.16752 | 50.81258 | 5179 ft | 226 kts | 305° |
| 2026-05-08 12:17 | 26.17644 | 50.79804 | 4421 ft | 230 kts | 306° |
| 2026-05-08 12:17 | 26.18522 | 50.78314 | 3673 ft | 230 kts | 304° |
| 2026-05-08 12:18 | 26.19349 | 50.76801 | 3032 ft | 226 kts | 303° |
| 2026-05-08 12:18 | 26.20121 | 50.75325 | 2462 ft | 215 kts | 302° |
| 2026-05-08 12:18 | 26.20862 | 50.73967 | 2039 ft | 197 kts | 305° |
| 2026-05-08 12:18 | 26.21619 | 50.72741 | 1837 ft | 184 kts | 308° |
| 2026-05-08 12:19 | 26.22324 | 50.71631 | 1630 ft | 169 kts | 306° |
| 2026-05-08 12:19 | 26.22914 | 50.70563 | 1432 ft | 153 kts | 303° |
| 2026-05-08 12:19 | 26.23451 | 50.69605 | 1207 ft | 141 kts | 306° |
| 2026-05-08 12:19 | 26.24007 | 50.68728 | 885 ft | 137 kts | 306° |
| 2026-05-08 12:20 | 26.24507 | 50.67848 | 696 ft | 134 kts | 303° |
| 2026-05-08 12:20 | 26.25001 | 50.66968 | 513 ft | 134 kts | 304° |
| 2026-05-08 12:20 | 26.25511 | 50.66093 | 327 ft | 135 kts | 304° |
| 2026-05-08 12:20 | 26.26021 | 50.65212 | 152 ft | 136 kts | 304° |
| 2026-05-08 12:21 | 26.26527 | 50.64328 | 33 ft | 135 kts | 303° |
| 2026-05-08 12:21 | 26.26964 | 50.63570 | 20 ft | 81 kts | 302° |
| 2026-05-08 12:21 | 26.27152 | 50.63240 | 18 ft | 40 kts | 301° |
| 2026-05-08 12:21 | 26.27255 | 50.62981 | 19 ft | 35 kts | 273° |
| 2026-05-08 12:22 | 26.27205 | 50.62846 | 20 ft | 13 kts | 155° |
| 2026-05-08 12:22 | 26.27131 | 50.62898 | 21 ft | 12 kts | 147° |
| 2026-05-08 12:22 | 26.27063 | 50.62901 | 19 ft | 9 kts | 176° |
| 2026-05-08 12:22 | 26.27008 | 50.62927 | 21 ft | 8 kts | 160° |
| 2026-05-08 12:23 | 26.26968 | 50.62912 | 21 ft | 5 kts | 214° |
| 2026-05-08 12:23 | 26.26940 | 50.62892 | 19 ft | 3 kts | 211° |
| 2026-05-08 12:23 | 26.26931 | 50.62886 | 19 ft | 5 kts | 212° |
| 2026-05-08 12:23 | 26.26930 | 50.62885 | 19 ft | 0 kts | 212° |
| 2026-05-08 13:03 | 26.26931 | 50.62885 | 20 ft | 0 kts | 212° |
| 2026-05-08 13:10 | 26.26931 | 50.62886 | 20 ft | 0 kts | 212° |